Taylor, Utah
Current Conditions -  °F | °C
As of 10:53 PM on Saturday 20 Dec 2014 (Local Time) from KOGD Reporting Station
Overcast Overcast  
Wind Chill: 34°   Ceiling: 4700
Heat Index: 39°   Visibility: 10mi
Dew Point: 35°   Wind: 7mph
Humidity: 86%   Direction: 130°SE
Pressure: 30.04"   Gusts: NA
Location:  41.2221°N, 112.033°W
Report Text: KOGD 210553Z AUTO 13006KT 10SM FEW036 BKN047 OVC060 04/02 A3004 RMK AO2 RAB03E17 SLP170 P0000 60000 T00390017 10044 20039 56004 TSNO
Loading
Personal Weather Stations






























Interactive Weather Map New forecast layout! Learn more

10-Day Weather Forecast

Advertisements
Track Severe Weather on mobile